createdAt,value
2023-05-03T00:00:17.289Z,99.90
2023-05-03T00:02:47.142Z,99.90
2023-05-03T00:05:15.634Z,99.90
2023-05-03T00:07:45.287Z,99.90
2023-05-03T00:10:16.088Z,99.90
2023-05-03T00:12:47.059Z,99.90
2023-05-03T00:15:15.475Z,99.90
2023-05-03T00:17:45.467Z,99.90
2023-05-03T00:20:14.064Z,99.90
2023-05-03T00:22:43.070Z,99.90
2023-05-03T00:25:12.047Z,99.90
2023-05-03T00:27:40.103Z,99.90
2023-05-03T00:30:13.486Z,99.90
2023-05-03T00:32:41.622Z,99.90
2023-05-03T00:35:10.098Z,99.90
2023-05-03T00:37:38.604Z,99.90
2023-05-03T00:40:09.055Z,99.90
2023-05-03T00:42:41.410Z,99.90
2023-05-03T00:45:11.527Z,99.90
2023-05-03T00:47:41.270Z,99.90
2023-05-03T00:50:12.927Z,99.90
2023-05-03T00:52:42.057Z,99.90
2023-05-03T00:55:12.090Z,99.90
2023-05-03T00:57:40.714Z,99.90
2023-05-03T01:00:17.320Z,99.90
2023-05-03T01:02:45.466Z,99.90
2023-05-03T01:05:14.063Z,99.90
2023-05-03T01:07:49.075Z,99.90
2023-05-03T01:10:29.357Z,99.90
2023-05-03T01:13:09.629Z,99.90
2023-05-03T01:15:49.103Z,99.90
2023-05-03T01:18:22.677Z,99.90
2023-05-03T01:20:53.091Z,99.90
2023-05-03T01:23:31.354Z,99.90
2023-05-03T01:26:02.084Z,99.90
2023-05-03T01:28:31.111Z,99.90
2023-05-03T01:31:00.786Z,99.90
2023-05-03T01:33:42.109Z,99.90
2023-05-03T01:36:15.095Z,99.90
2023-05-03T01:38:44.354Z,99.90
2023-05-03T01:41:14.954Z,99.90
2023-05-03T01:43:45.347Z,99.90
2023-05-03T01:46:14.407Z,99.90
2023-05-03T01:48:46.108Z,99.90
2023-05-03T01:51:14.110Z,99.90
2023-05-03T01:53:42.885Z,99.90
2023-05-03T01:56:11.188Z,99.90
2023-05-03T01:58:40.695Z,99.90
2023-05-03T02:01:09.023Z,99.90
2023-05-03T02:03:38.123Z,99.90
2023-05-03T02:06:06.483Z,99.90
2023-05-03T02:08:34.585Z,99.90
2023-05-03T02:11:03.128Z,99.90
2023-05-03T02:13:33.611Z,99.90
2023-05-03T02:16:06.207Z,99.90
2023-05-03T02:18:36.102Z,99.90
2023-05-03T02:21:04.838Z,99.90
2023-05-03T02:23:34.122Z,99.90
2023-05-03T02:26:02.330Z,99.90
2023-05-03T02:28:30.372Z,99.90
2023-05-03T02:31:00.178Z,99.90
2023-05-03T02:33:29.738Z,99.90
2023-05-03T02:35:57.842Z,99.90
2023-05-03T02:38:29.734Z,99.90
2023-05-03T02:41:00.745Z,99.90
2023-05-03T02:43:29.054Z,99.90
2023-05-03T02:46:00.016Z,99.90
2023-05-03T02:48:30.128Z,99.90
2023-05-03T02:51:01.402Z,99.90
2023-05-03T02:53:29.782Z,99.90
2023-05-03T02:56:01.752Z,99.90
2023-05-03T02:58:34.136Z,99.90
2023-05-03T03:01:04.064Z,99.90
2023-05-03T03:03:34.444Z,99.90
2023-05-03T03:06:02.689Z,99.90
2023-05-03T03:08:31.072Z,99.90
2023-05-03T03:11:05.144Z,99.90
2023-05-03T03:13:35.965Z,99.90
2023-05-03T03:16:04.107Z,99.90
2023-05-03T03:18:33.190Z,99.90
2023-05-03T03:21:03.559Z,99.90
2023-05-03T03:23:36.445Z,99.90
2023-05-03T03:26:04.713Z,99.90
2023-05-03T03:28:33.090Z,99.90
2023-05-03T03:31:07.415Z,99.90
2023-05-03T03:33:36.817Z,99.90
2023-05-03T03:36:13.256Z,99.90
2023-05-03T03:38:44.555Z,99.90
2023-05-03T03:41:13.298Z,99.90
2023-05-03T03:43:41.856Z,99.90
2023-05-03T03:46:36.223Z,99.90
2023-05-03T03:49:04.854Z,99.90
2023-05-03T03:51:34.343Z,99.90
2023-05-03T03:54:06.849Z,99.90
2023-05-03T03:56:39.179Z,99.90
2023-05-03T03:59:10.212Z,99.90
2023-05-03T04:01:43.183Z,99.90
2023-05-03T04:04:12.446Z,99.90
2023-05-03T04:06:43.239Z,99.90
2023-05-03T04:09:14.723Z,99.90
2023-05-03T04:11:43.176Z,99.90
2023-05-03T04:14:11.272Z,99.90
2023-05-03T04:16:40.619Z,99.90
2023-05-03T04:19:09.020Z,99.90
2023-05-03T04:21:42.188Z,99.90
2023-05-03T04:24:11.430Z,99.90
2023-05-03T04:26:40.462Z,99.90
2023-05-03T04:29:18.719Z,99.90
2023-05-03T04:31:47.578Z,99.90
2023-05-03T04:34:17.853Z,99.90
2023-05-03T04:36:53.790Z,99.90
2023-05-03T04:39:24.188Z,99.90
2023-05-03T04:41:54.232Z,99.90
2023-05-03T04:44:22.682Z,99.90
2023-05-03T04:46:51.906Z,99.90
2023-05-03T04:49:21.783Z,99.90
2023-05-03T04:51:51.013Z,99.90
2023-05-03T04:54:21.452Z,99.90
2023-05-03T04:56:50.222Z,99.90
2023-05-03T04:59:19.860Z,99.90
2023-05-03T05:01:52.260Z,99.90
2023-05-03T05:04:20.409Z,99.90
2023-05-03T05:06:53.359Z,99.90
2023-05-03T05:09:31.214Z,99.90
2023-05-03T05:12:04.240Z,99.90
2023-05-03T05:14:46.758Z,99.90
2023-05-03T05:17:14.837Z,99.90
2023-05-03T05:19:43.519Z,99.90
2023-05-03T05:22:13.200Z,99.90
2023-05-03T05:24:50.859Z,99.90
2023-05-03T05:27:21.288Z,99.90
2023-05-03T05:29:50.216Z,99.90
2023-05-03T05:32:18.715Z,99.90
2023-05-03T05:34:52.942Z,99.90
2023-05-03T05:37:27.162Z,99.90
2023-05-03T05:40:04.675Z,99.90
2023-05-03T05:42:40.074Z,99.90
2023-05-03T05:45:09.562Z,99.90
2023-05-03T05:47:43.070Z,99.90
2023-05-03T05:50:18.163Z,99.90
2023-05-03T05:52:57.272Z,99.90
2023-05-03T05:55:30.399Z,99.90
2023-05-03T05:58:04.325Z,99.90
2023-05-03T06:00:39.723Z,99.90
2023-05-03T06:03:08.262Z,99.90
2023-05-03T06:05:36.561Z,99.90
2023-05-03T06:08:05.346Z,99.90
2023-05-03T06:10:36.219Z,99.90
2023-05-03T06:13:04.954Z,99.90
2023-05-03T06:15:35.045Z,99.90
2023-05-03T06:18:04.429Z,99.90
2023-05-03T06:20:34.234Z,99.90
2023-05-03T06:23:03.482Z,99.90
2023-05-03T06:25:31.609Z,99.90
2023-05-03T06:28:02.816Z,99.90
2023-05-03T06:30:34.263Z,99.90
2023-05-03T06:33:08.241Z,99.90
2023-05-03T06:35:38.074Z,99.90
2023-05-03T06:38:06.150Z,99.90
2023-05-03T06:40:37.117Z,99.90
2023-05-03T06:43:08.781Z,99.90
2023-05-03T06:45:44.539Z,99.90
2023-05-03T06:48:14.395Z,99.90
2023-05-03T06:50:43.250Z,99.90
2023-05-03T06:53:14.140Z,99.90
2023-05-03T06:55:45.258Z,99.90
2023-05-03T06:58:15.232Z,99.90
2023-05-03T07:00:43.338Z,99.90
2023-05-03T07:03:15.050Z,99.90
2023-05-03T07:05:44.289Z,99.90
2023-05-03T07:08:12.602Z,99.90
2023-05-03T07:10:43.371Z,99.90
2023-05-03T07:13:11.431Z,99.90
2023-05-03T07:15:40.889Z,99.90
2023-05-03T07:18:10.320Z,99.90
2023-05-03T07:20:38.614Z,99.90
2023-05-03T07:23:07.288Z,99.90
2023-05-03T07:25:39.413Z,99.90
2023-05-03T07:28:08.392Z,99.90
2023-05-03T07:30:36.644Z,99.90
2023-05-03T07:33:06.429Z,99.90
2023-05-03T07:35:34.768Z,99.90
2023-05-03T07:38:02.975Z,99.90
2023-05-03T07:40:33.358Z,99.90
2023-05-03T07:43:01.698Z,99.90
2023-05-03T07:45:29.791Z,99.90
2023-05-03T07:48:01.552Z,99.90
2023-05-03T07:50:35.362Z,99.90
2023-05-03T07:53:07.060Z,99.90
2023-05-03T07:55:36.579Z,99.90
2023-05-03T07:58:04.766Z,99.90
2023-05-03T08:00:35.863Z,99.90
2023-05-03T08:03:06.192Z,99.90
2023-05-03T08:05:36.785Z,99.90
2023-05-03T08:08:05.650Z,99.90
2023-05-03T08:10:37.967Z,99.90
2023-05-03T08:13:07.096Z,99.90
2023-05-03T08:15:35.682Z,99.90
2023-05-03T08:18:03.957Z,99.90
2023-05-03T08:20:32.197Z,99.90
2023-05-03T08:23:01.676Z,99.90
2023-05-03T08:25:33.432Z,99.90
2023-05-03T08:28:01.806Z,99.90
2023-05-03T08:30:32.850Z,99.90
2023-05-03T08:33:01.114Z,99.90
2023-05-03T08:35:29.266Z,99.90
2023-05-03T08:37:57.405Z,99.90
2023-05-03T08:40:32.301Z,99.90
2023-05-03T08:43:08.037Z,99.90
2023-05-03T08:45:37.405Z,99.90
2023-05-03T08:48:09.060Z,99.90
2023-05-03T08:50:42.214Z,99.90
2023-05-03T08:53:10.685Z,99.90
2023-05-03T08:55:44.589Z,99.90
2023-05-03T08:58:13.609Z,99.90
2023-05-03T09:00:45.066Z,99.90
2023-05-03T09:03:14.185Z,99.90
2023-05-03T09:05:44.411Z,99.90
2023-05-03T09:08:14.712Z,99.90
2023-05-03T09:10:45.302Z,99.90
2023-05-03T09:13:13.390Z,99.90
2023-05-03T09:15:41.536Z,99.90
2023-05-03T09:18:15.775Z,99.90
2023-05-03T09:20:51.275Z,99.90
2023-05-03T09:23:20.889Z,99.90
2023-05-03T09:25:51.819Z,99.90
2023-05-03T09:28:20.904Z,99.90
2023-05-03T09:30:50.371Z,99.90
2023-05-03T09:33:22.355Z,99.90
2023-05-03T09:36:01.179Z,99.90
2023-05-03T09:38:30.633Z,99.90
2023-05-03T09:41:01.396Z,99.90
2023-05-03T09:43:34.827Z,99.90
2023-05-03T09:46:12.898Z,99.90
2023-05-03T09:48:42.052Z,99.90
2023-05-03T09:51:11.408Z,99.90
2023-05-03T09:53:41.497Z,99.90
2023-05-03T09:56:13.673Z,99.90
2023-05-03T09:58:43.721Z,99.90
2023-05-03T10:01:12.172Z,99.90
2023-05-03T10:03:42.410Z,99.90
2023-05-03T10:06:23.647Z,99.90
2023-05-03T10:08:58.022Z,99.90
2023-05-03T10:11:28.369Z,99.90
2023-05-03T10:13:57.126Z,99.90
2023-05-03T10:16:30.344Z,99.90
2023-05-03T10:19:05.595Z,99.90
2023-05-03T10:21:44.354Z,99.90
2023-05-03T10:24:14.430Z,99.90
2023-05-03T10:26:46.083Z,99.90
2023-05-03T10:29:54.018Z,99.90
2023-05-03T10:32:40.386Z,99.90
2023-05-03T10:35:11.381Z,99.90
2023-05-03T10:37:43.354Z,99.90
2023-05-03T10:40:13.761Z,99.90
2023-05-03T10:42:48.328Z,99.90
2023-05-03T10:45:27.554Z,99.90
2023-05-03T10:48:20.770Z,99.90
2023-05-03T10:50:51.921Z,99.90
2023-05-03T10:53:44.910Z,99.90
2023-05-03T10:56:15.741Z,99.90
2023-05-03T10:58:46.582Z,99.90
2023-05-03T11:01:18.795Z,99.90
2023-05-03T11:04:00.406Z,99.90
2023-05-03T11:06:31.469Z,99.90
2023-05-03T11:09:00.495Z,99.90
2023-05-03T11:11:28.738Z,99.90
2023-05-03T11:13:58.629Z,99.90
2023-05-03T11:16:31.170Z,99.90
2023-05-03T11:19:00.348Z,99.90
2023-05-03T11:21:29.391Z,99.90
2023-05-03T11:24:03.387Z,99.90
2023-05-03T11:26:37.549Z,99.90
2023-05-03T11:29:14.016Z,99.90
2023-05-03T11:31:44.129Z,99.90
2023-05-03T11:34:13.370Z,99.90
2023-05-03T11:36:42.417Z,99.90
2023-05-03T11:39:10.565Z,99.90
2023-05-03T11:41:39.361Z,99.90
2023-05-03T11:46:47.761Z,99.90
2023-05-03T11:49:20.782Z,99.90
2023-05-03T11:51:51.830Z,99.90
2023-05-03T11:54:26.310Z,99.90
2023-05-03T11:56:59.248Z,99.90
2023-05-03T11:59:38.178Z,99.90
2023-05-03T12:02:13.140Z,99.90
2023-05-03T12:04:45.630Z,99.90
2023-05-03T12:07:19.186Z,99.90
2023-05-03T12:10:00.609Z,99.90
2023-05-03T12:15:07.969Z,99.90
2023-05-03T12:17:40.344Z,99.90
2023-05-03T12:22:56.728Z,99.90
2023-05-03T12:25:28.920Z,99.90
2023-05-03T12:30:35.422Z,99.90
2023-05-03T12:33:05.386Z,99.90
2023-05-03T12:35:34.543Z,99.90
2023-05-03T12:38:04.617Z,99.90
2023-05-03T12:40:35.584Z,99.90
2023-05-03T12:43:04.857Z,99.90
2023-05-03T12:45:34.389Z,99.90
2023-05-03T12:48:06.566Z,99.90
2023-05-03T12:50:38.733Z,99.90
2023-05-03T12:53:09.838Z,99.90
2023-05-03T12:55:43.100Z,99.90
2023-05-03T12:58:43.248Z,99.90
2023-05-03T13:01:37.245Z,99.90
2023-05-03T13:04:08.867Z,99.90
2023-05-03T13:06:43.820Z,99.80
2023-05-03T13:09:19.194Z,99.00
2023-05-03T13:11:50.253Z,99.90
2023-05-03T13:14:18.831Z,99.10
2023-05-03T13:16:47.862Z,99.90
2023-05-03T13:19:18.452Z,99.90
2023-05-03T13:21:48.841Z,99.50
2023-05-03T13:24:19.492Z,97.70
2023-05-03T13:26:47.602Z,96.30
2023-05-03T13:29:16.176Z,97.00
2023-05-03T13:31:45.528Z,95.80
2023-05-03T13:34:14.523Z,96.20
2023-05-03T13:36:44.232Z,97.30
2023-05-03T13:39:12.387Z,97.70
2023-05-03T13:41:42.433Z,96.70
2023-05-03T13:44:11.693Z,97.50
2023-05-03T13:46:41.610Z,97.50
2023-05-03T13:49:14.610Z,97.40
2023-05-03T13:51:44.510Z,97.80
2023-05-03T13:54:12.566Z,96.10
2023-05-03T13:56:42.991Z,96.50
2023-05-03T13:59:15.170Z,95.30
2023-05-03T14:01:43.992Z,94.10
2023-05-03T14:04:13.310Z,94.40
2023-05-03T14:06:43.476Z,93.20
2023-05-03T14:09:11.867Z,91.80
2023-05-03T14:11:42.271Z,92.40
2023-05-03T14:14:10.388Z,92.60
2023-05-03T14:16:41.489Z,92.00
2023-05-03T14:19:11.807Z,90.40
2023-05-03T14:21:43.473Z,90.80
2023-05-03T14:24:16.491Z,91.60
2023-05-03T14:26:45.501Z,91.50
2023-05-03T14:29:13.589Z,90.70
2023-05-03T14:32:07.512Z,90.40
2023-05-03T14:34:35.678Z,88.20
2023-05-03T14:37:04.432Z,87.90
2023-05-03T14:39:35.490Z,86.20
2023-05-03T14:42:04.172Z,83.40
2023-05-03T14:44:32.549Z,78.90
2023-05-03T14:47:01.134Z,80.00
2023-05-03T14:49:30.508Z,78.20
2023-05-03T14:51:59.086Z,76.30
2023-05-03T14:54:32.333Z,76.60
2023-05-03T14:57:04.330Z,74.50
2023-05-03T14:59:33.917Z,73.20
2023-05-03T15:02:02.180Z,72.40
2023-05-03T15:04:37.018Z,74.10
2023-05-03T15:07:07.516Z,75.40
2023-05-03T15:09:35.794Z,74.20
2023-05-03T15:12:06.502Z,73.50
2023-05-03T15:14:35.299Z,74.50
2023-05-03T15:17:03.613Z,71.40
2023-05-03T15:19:32.409Z,71.50
2023-05-03T15:22:00.553Z,72.30
2023-05-03T15:24:29.538Z,70.10
2023-05-03T15:26:57.643Z,70.50
2023-05-03T15:29:27.536Z,71.30
2023-05-03T15:31:55.682Z,71.90
2023-05-03T15:34:23.723Z,71.10
2023-05-03T15:36:53.548Z,69.90
2023-05-03T15:39:21.666Z,71.10
2023-05-03T15:41:50.373Z,70.10
2023-05-03T15:44:21.551Z,71.40
2023-05-03T15:46:51.257Z,73.70
2023-05-03T15:49:20.513Z,70.90
2023-05-03T15:51:50.561Z,70.90
2023-05-03T15:54:18.837Z,69.40
2023-05-03T15:56:50.714Z,68.80
2023-05-03T15:59:21.000Z,68.90
2023-05-03T16:01:51.295Z,70.80
2023-05-03T16:04:19.445Z,72.80
2023-05-03T16:06:47.533Z,72.10
2023-05-03T16:09:19.006Z,72.00
2023-05-03T16:11:49.523Z,72.10
2023-05-03T16:14:17.811Z,72.70
2023-05-03T16:16:47.075Z,73.20
2023-05-03T16:19:23.863Z,74.40
2023-05-03T16:21:52.008Z,74.50
2023-05-03T16:24:20.360Z,73.20
2023-05-03T16:26:52.805Z,73.90
2023-05-03T16:29:23.631Z,74.20
2023-05-03T16:31:52.595Z,75.00
2023-05-03T16:34:22.608Z,75.40
2023-05-03T16:36:54.238Z,75.50
2023-05-03T16:39:23.618Z,76.20
2023-05-03T16:41:52.497Z,76.70
2023-05-03T16:44:22.467Z,77.90
2023-05-03T16:46:50.623Z,78.30
2023-05-03T16:49:22.194Z,80.00
2023-05-03T16:51:51.744Z,79.40
2023-05-03T16:54:21.317Z,80.40
2023-05-03T16:56:49.427Z,80.70
2023-05-03T16:59:17.540Z,81.70
2023-05-03T17:01:45.909Z,81.00
2023-05-03T17:04:17.605Z,79.90
2023-05-03T17:06:48.488Z,81.00
2023-05-03T17:09:18.221Z,82.80
2023-05-03T17:11:47.124Z,83.70
2023-05-03T17:14:15.390Z,85.00
2023-05-03T17:16:46.796Z,85.80
2023-05-03T17:19:18.175Z,85.80
2023-05-03T17:21:46.429Z,87.40
2023-05-03T17:24:14.591Z,89.50
2023-05-03T17:26:44.029Z,88.50
2023-05-03T17:29:13.531Z,88.20
2023-05-03T17:31:41.900Z,88.80
2023-05-03T17:34:10.671Z,89.90
2023-05-03T17:36:38.820Z,90.00
2023-05-03T17:39:07.023Z,90.70
2023-05-03T17:41:38.624Z,90.90
2023-05-03T17:44:08.121Z,91.00
2023-05-03T17:46:38.386Z,90.80
2023-05-03T17:49:07.029Z,91.10
2023-05-03T17:51:35.262Z,90.90
2023-05-03T17:54:03.611Z,90.80
2023-05-03T17:56:31.725Z,91.10
2023-05-03T17:59:00.212Z,91.10
2023-05-03T18:01:31.814Z,91.80
2023-05-03T18:04:00.787Z,91.90
2023-05-03T18:06:29.321Z,91.50
2023-05-03T18:08:57.451Z,91.90
2023-05-03T18:11:25.597Z,91.30
2023-05-03T18:13:53.700Z,91.30
2023-05-03T18:16:22.071Z,91.50
2023-05-03T18:18:52.965Z,92.20
2023-05-03T18:21:22.186Z,92.40
2023-05-03T18:23:50.351Z,93.80
2023-05-03T18:26:18.478Z,94.90
2023-05-03T18:28:46.605Z,95.00
2023-05-03T18:31:14.759Z,95.60
2023-05-03T18:33:42.994Z,96.10
2023-05-03T18:36:15.513Z,96.00
2023-05-03T18:38:44.304Z,96.80
2023-05-03T18:41:14.387Z,96.50
2023-05-03T18:43:43.336Z,97.70
2023-05-03T18:46:18.692Z,97.00
2023-05-03T18:48:47.727Z,97.20
2023-05-03T18:51:17.676Z,97.20
2023-05-03T18:53:45.809Z,98.00
2023-05-03T18:56:14.445Z,98.20
2023-05-03T18:58:42.667Z,97.50
2023-05-03T19:01:11.439Z,96.70
2023-05-03T19:03:39.691Z,95.70
2023-05-03T19:06:08.341Z,95.60
2023-05-03T19:08:38.201Z,95.30
2023-05-03T19:11:10.108Z,95.30
2023-05-03T19:13:39.523Z,95.50
2023-05-03T19:16:07.926Z,97.90
2023-05-03T19:18:37.185Z,97.80
2023-05-03T19:21:05.968Z,97.10
2023-05-03T19:23:34.059Z,97.90
2023-05-03T19:26:03.702Z,99.20
2023-05-03T19:28:34.163Z,97.70
2023-05-03T19:31:04.939Z,97.40
2023-05-03T19:33:33.921Z,98.30
2023-05-03T19:36:06.376Z,99.30
2023-05-03T19:38:36.153Z,98.80
2023-05-03T19:41:08.303Z,99.00
2023-05-03T19:43:36.649Z,99.10
2023-05-03T19:46:04.787Z,99.90
2023-05-03T19:48:33.228Z,99.90
2023-05-03T19:51:04.628Z,99.90
2023-05-03T19:53:32.782Z,99.90
2023-05-03T19:56:04.719Z,99.70
2023-05-03T19:58:34.214Z,99.90
2023-05-03T20:01:02.654Z,99.90
2023-05-03T20:03:34.706Z,99.90
2023-05-03T20:06:03.021Z,99.90
2023-05-03T20:08:32.732Z,99.90
2023-05-03T20:11:00.904Z,99.90
2023-05-03T20:13:30.337Z,99.90
2023-05-03T20:16:01.037Z,99.90
2023-05-03T20:18:29.142Z,99.90
2023-05-03T20:20:57.724Z,99.90
2023-05-03T20:23:26.826Z,99.90
2023-05-03T20:25:55.683Z,99.90
2023-05-03T20:28:24.725Z,99.90
2023-05-03T20:30:52.990Z,99.90
2023-05-03T20:33:26.329Z,99.90
2023-05-03T20:35:54.412Z,99.90
2023-05-03T20:38:23.679Z,99.90
2023-05-03T20:40:52.741Z,99.90
2023-05-03T20:43:24.262Z,99.90
2023-05-03T20:45:54.283Z,99.90
2023-05-03T20:48:22.801Z,99.90
2023-05-03T20:50:53.708Z,99.90
2023-05-03T20:53:21.872Z,99.90
2023-05-03T20:55:56.541Z,99.90
2023-05-03T20:58:24.751Z,99.90
2023-05-03T21:00:57.548Z,99.90
2023-05-03T21:03:27.638Z,99.90
2023-05-03T21:05:57.613Z,99.90
2023-05-03T21:08:26.704Z,99.90
2023-05-03T21:10:55.814Z,99.90
2023-05-03T21:13:23.923Z,99.90
2023-05-03T21:15:56.723Z,99.90
2023-05-03T21:18:25.018Z,99.90
2023-05-03T21:20:54.824Z,99.90
2023-05-03T21:23:24.403Z,99.90
2023-05-03T21:25:58.277Z,99.90
2023-05-03T21:28:26.750Z,99.90
2023-05-03T21:30:55.602Z,99.90
2023-05-03T21:33:24.185Z,99.90
2023-05-03T21:35:52.267Z,99.90
2023-05-03T21:38:48.219Z,99.90
2023-05-03T21:41:20.136Z,99.90
2023-05-03T21:43:50.487Z,99.90
2023-05-03T21:46:18.785Z,99.90
2023-05-03T21:48:47.033Z,99.90
2023-05-03T21:51:21.328Z,99.90
2023-05-03T21:53:50.939Z,99.90
2023-05-03T21:56:19.748Z,99.90
2023-05-03T21:58:48.752Z,99.90
2023-05-03T22:01:19.484Z,99.90
2023-05-03T22:03:49.551Z,99.90
2023-05-03T22:06:17.907Z,99.90
2023-05-03T22:08:46.645Z,99.90
2023-05-03T22:11:17.766Z,99.90
2023-05-03T22:14:03.169Z,99.90
2023-05-03T22:16:34.822Z,99.90
2023-05-03T22:19:03.499Z,99.90
2023-05-03T22:21:32.774Z,99.90
2023-05-03T22:24:00.862Z,99.90
2023-05-03T22:26:34.834Z,99.90
2023-05-03T22:29:02.935Z,99.90
2023-05-03T22:31:31.788Z,99.90
2023-05-03T22:34:00.101Z,99.90
2023-05-03T22:36:28.567Z,99.90
2023-05-03T22:39:01.760Z,99.90
2023-05-03T22:41:32.128Z,99.90
2023-05-03T22:44:00.423Z,99.90
2023-05-03T22:46:29.240Z,99.90
2023-05-03T22:48:57.471Z,99.90
2023-05-03T22:51:30.872Z,99.90
2023-05-03T22:53:59.077Z,99.90
2023-05-03T22:56:27.776Z,99.90
2023-05-03T22:58:57.805Z,99.90
2023-05-03T23:01:26.953Z,99.90
2023-05-03T23:03:55.892Z,99.90
2023-05-03T23:06:25.777Z,99.90
2023-05-03T23:08:53.915Z,99.90
2023-05-03T23:11:23.804Z,99.90
2023-05-03T23:13:52.018Z,99.90
2023-05-03T23:16:21.549Z,99.90
2023-05-03T23:18:54.221Z,99.90
2023-05-03T23:21:23.796Z,99.90
2023-05-03T23:23:52.813Z,99.90
2023-05-03T23:26:20.824Z,99.90
2023-05-03T23:28:53.304Z,99.90
2023-05-03T23:31:23.864Z,99.90
2023-05-03T23:33:52.513Z,99.90
2023-05-03T23:36:20.554Z,99.90
2023-05-03T23:38:51.205Z,99.90
2023-05-03T23:41:22.860Z,99.90
2023-05-03T23:43:51.098Z,99.90
2023-05-03T23:46:19.863Z,99.90
2023-05-03T23:48:49.372Z,99.90
2023-05-03T23:51:17.716Z,99.90
2023-05-03T23:53:49.157Z,99.90
2023-05-03T23:56:17.248Z,99.90
2023-05-03T23:58:45.815Z,99.90
